British Cygnet — MGSG6 — position and weather

sailwx.info

Track history (hours):
 
Tides and Currents Weather Stations Pressure Air Temp Water Temp Dewpoint Dewpoint Depression Visibility Wind Speed Wind Dir Waves Ship Positions

British Cygnet

Last reported at 2017-Dec-09 13:00 UTC. Time now 2017-Dec-12 06:32 UTC.
Position N 37°12' W 072°24'.

Length 251.5 m; beam 43.8 m; draft 15 m.

Type: Tanker. MMSI: 232157000.

Wind from 080 at 34 knots

Barometer 1008.6 mb
Air temperature 15.0 ° C
Visibility: greater than 5.4 NM
Dewpoint 13.2 ° C
Water temperature 21.7 ° C

Date/timePositionNaut miles runAvg speedWind from/ knotsBaromVisibWave heightAir tempDewpointWater temp
2017-Dec-09 13:00N 37°12' W 072°24'15711.9 080 / 341008.6 5.4 15.013.221.7
2017-Dec-08 23:51N 38°47' W 075°02'610.4
2017-Dec-08 23:18N 38°52' W 075°05'615.4
2017-Dec-08 22:52N 38°58' W 075°07'615.5
2017-Dec-08 22:30N 39°04' W 075°10'815.4
2017-Dec-08 22:01N 39°10' W 075°16'714.4
2017-Dec-08 21:31N 39°16' W 075°21'714.1
2017-Dec-08 21:00N 39°21' W 075°27'713.1
2017-Dec-08 20:30N 39°26' W 075°32'510.9
2017-Dec-08 20:00N 39°32' W 075°33'511.0
2017-Dec-08 19:30N 39°37' W 075°35'510.7
2017-Dec-08 19:00N 39°41' W 075°31'1 3.0
2017-Dec-08 18:30N 39°43' W 075°30'0 0.5
2017-Dec-08 18:00N 39°43' W 075°30'0 0.0
2017-Dec-08 17:30N 39°43' W 075°30'0 0.0
2017-Dec-08 17:00N 39°43' W 075°30'0 0.2
2017-Dec-08 16:28N 39°43' W 075°30'0 0.1
2017-Dec-08 15:58N 39°43' W 075°30'0 0.0
2017-Dec-08 15:28N 39°43' W 075°30'0 0.0
2017-Dec-08 15:01N 39°43' W 075°30'0 0.0
2017-Dec-08 14:30N 39°43' W 075°30'0 0.0
2017-Dec-08 14:00N 39°43' W 075°30'0 0.0
2017-Dec-08 13:30N 39°43' W 075°30'0 0.0
2017-Dec-08 13:01N 39°43' W 075°30'0 0.0
2017-Dec-08 12:30N 39°43' W 075°30'0 0.0
2017-Dec-08 12:00N 39°43' W 075°30'0 0.7
2017-Dec-08 11:30N 39°42' W 075°31'3 5.2
2017-Dec-08 11:00N 39°40' W 075°32'5 9.3
2017-Dec-08 10:30N 39°35' W 075°34'2 3.6
2017-Dec-08 10:01N 39°34' W 075°33'2 4.2
2017-Dec-08 09:31N 39°35' W 075°35'0 0.0
2017-Dec-08 08:58N 39°35' W 075°35'0 0.0
2017-Dec-08 08:28N 39°35' W 075°35'0 0.0
2017-Dec-08 07:58N 39°35' W 075°35'0 0.0
2017-Dec-08 07:28N 39°35' W 075°35'0 0.0
2017-Dec-08 06:58N 39°35' W 075°35'0 0.0
2017-Dec-08 06:28N 39°35' W 075°35'0 0.0
2017-Dec-08 05:58N 39°35' W 075°35'0 0.0
2017-Dec-08 05:28N 39°35' W 075°35'0 0.0
2017-Dec-08 04:58N 39°35' W 075°35'0 0.0
2017-Dec-08 04:28N 39°35' W 075°35'0 0.0
2017-Dec-08 03:58N 39°35' W 075°35'0 0.0
2017-Dec-08 03:28N 39°35' W 075°35'0 0.0
2017-Dec-08 02:58N 39°35' W 075°35'0 0.0
2017-Dec-08 02:28N 39°35' W 075°35'0 0.0
2017-Dec-08 01:58N 39°35' W 075°35'0 0.0
2017-Dec-08 01:31N 39°35' W 075°35'0 0.0
2017-Dec-08 00:58N 39°35' W 075°35'0 0.0
2017-Dec-08 00:30N 39°35' W 075°35'0 0.0
2017-Dec-08 00:00N 39°35' W 075°35'0 0.0
2017-Dec-07 23:30N 39°35' W 075°35'0 0.0
2017-Dec-07 23:00N 39°35' W 075°35'0 0.0
2017-Dec-07 22:30N 39°35' W 075°35'0 0.0
2017-Dec-07 22:00N 39°35' W 075°35'0 0.0
2017-Dec-07 21:31N 39°35' W 075°35'0 0.0
2017-Dec-07 21:01N 39°35' W 075°35'0 0.0
2017-Dec-07 20:31N 39°35' W 075°35'0 0.0
2017-Dec-07 20:00N 39°35' W 075°35'0 0.0
2017-Dec-07 19:30N 39°35' W 075°35'0 0.0
2017-Dec-07 19:00N 39°35' W 075°35'0 0.0
2017-Dec-07 18:30N 39°35' W 075°35'0 0.0
2017-Dec-07 18:00N 39°35' W 075°35'0 0.0
2017-Dec-07 17:30N 39°35' W 075°35'0 0.0
2017-Dec-07 17:00N 39°35' W 075°35'0 0.0
2017-Dec-07 16:30N 39°35' W 075°35'0 0.0
2017-Dec-07 16:00N 39°35' W 075°35'0 0.0
2017-Dec-07 15:30N 39°35' W 075°35'0 0.0
2017-Dec-07 15:00N 39°35' W 075°35'0 0.0
2017-Dec-07 14:30N 39°35' W 075°35'0 0.0
2017-Dec-07 14:00N 39°35' W 075°35'0 0.0
2017-Dec-07 13:30N 39°35' W 075°35'0 0.0
2017-Dec-07 13:00N 39°35' W 075°35'0 0.0
2017-Dec-07 12:30N 39°35' W 075°35'0 0.0
2017-Dec-07 12:00N 39°35' W 075°35'0 0.0
2017-Dec-07 11:30N 39°35' W 075°35'0 0.0
2017-Dec-07 11:00N 39°35' W 075°35'0 0.0
2017-Dec-07 10:30N 39°35' W 075°35'0 0.0
2017-Dec-07 10:00N 39°35' W 075°35'0 0.0
2017-Dec-07 09:31N 39°35' W 075°35'0 0.1
2017-Dec-07 09:00N 39°35' W 075°35'2 3.6
2017-Dec-07 08:31N 39°34' W 075°33'1 1.3
2017-Dec-07 08:00N 39°35' W 075°33'3 5.9
2017-Dec-07 07:30N 39°37' W 075°35'5 9.4
2017-Dec-07 07:00N 39°41' W 075°31'510.5
2017-Dec-07 06:30N 39°46' W 075°29'713.2
2017-Dec-07 06:00N 39°50' W 075°22'4 7.7
2017-Dec-07 05:30N 39°51' W 075°17'1 0.8
2017-Dec-07 04:51N 39°51' W 075°16'0 0.0
2017-Dec-07 04:03N 39°51' W 075°16'0 0.0
2017-Dec-07 04:00N 39°51' W 075°16'0 0.0
2017-Dec-07 03:30N 39°51' W 075°16'0 0.0
2017-Dec-07 03:00N 39°51' W 075°16'0 0.0
2017-Dec-07 02:30N 39°51' W 075°16'0 0.0
2017-Dec-07 02:00N 39°51' W 075°16'0 0.0
2017-Dec-07 01:30N 39°51' W 075°16'0 0.0
2017-Dec-07 01:00N 39°51' W 075°16'0 0.0
2017-Dec-07 00:30N 39°51' W 075°16'0 0.0
2017-Dec-07 00:00N 39°51' W 075°16'0 0.0
2017-Dec-06 23:30N 39°51' W 075°16'0 0.0
2017-Dec-06 23:00N 39°51' W 075°16'0 0.0
2017-Dec-06 22:27N 39°51' W 075°16'0 0.0
2017-Dec-06 22:00N 39°51' W 075°16'0 0.0
2017-Dec-06 21:30N 39°51' W 075°16'0 0.0
2017-Dec-06 20:57N 39°51' W 075°16'  
2017-Dec-03 08:01N 38°25' W 074°36'1 6.7
2017-Dec-03 07:49N 38°24' W 074°35'2 7.7
2017-Dec-03 07:29N 38°23' W 074°33'917.8
2017-Dec-03 06:58N 38°17' W 074°23'1015.7
2017-Dec-03 06:21N 38°12' W 074°13'3 6.5
2017-Dec-03 05:55N 38°10' W 074°10'  
Track history (hours):
 
Tides and Currents Weather Stations Pressure Air Temp Water Temp Dewpoint Dewpoint Depression Visibility Wind Speed Wind Dir Waves Ship Positions

British Cygnet

Last reported at 2017-Dec-09 13:00 UTC. Time now 2017-Dec-12 06:32 UTC.
Position N 37°12' W 072°24'.

Length 251.5 m; beam 43.8 m; draft 15 m.

Type: Tanker. MMSI: 232157000.

Wind from 080 at 34 knots

Barometer 1008.6 mb
Air temperature 15.0 ° C
Visibility: greater than 5.4 NM
Dewpoint 13.2 ° C
Water temperature 21.7 ° C

Date/timePositionNaut miles runAvg speedWind from/ knotsBaromVisibWave heightAir tempDewpointWater temp
2017-Dec-09 13:00N 37°12' W 072°24'15711.9 080 / 341008.6 5.4 15.013.221.7
2017-Dec-08 23:51N 38°47' W 075°02'610.4
2017-Dec-08 23:18N 38°52' W 075°05'615.4
2017-Dec-08 22:52N 38°58' W 075°07'615.5
2017-Dec-08 22:30N 39°04' W 075°10'815.4
2017-Dec-08 22:01N 39°10' W 075°16'714.4
2017-Dec-08 21:31N 39°16' W 075°21'714.1
2017-Dec-08 21:00N 39°21' W 075°27'713.1
2017-Dec-08 20:30N 39°26' W 075°32'510.9
2017-Dec-08 20:00N 39°32' W 075°33'511.0
2017-Dec-08 19:30N 39°37' W 075°35'510.7
2017-Dec-08 19:00N 39°41' W 075°31'1 3.0
2017-Dec-08 18:30N 39°43' W 075°30'0 0.5
2017-Dec-08 18:00N 39°43' W 075°30'0 0.0
2017-Dec-08 17:30N 39°43' W 075°30'0 0.0
2017-Dec-08 17:00N 39°43' W 075°30'0 0.2
2017-Dec-08 16:28N 39°43' W 075°30'0 0.1
2017-Dec-08 15:58N 39°43' W 075°30'0 0.0
2017-Dec-08 15:28N 39°43' W 075°30'0 0.0
2017-Dec-08 15:01N 39°43' W 075°30'0 0.0
2017-Dec-08 14:30N 39°43' W 075°30'0 0.0
2017-Dec-08 14:00N 39°43' W 075°30'0 0.0
2017-Dec-08 13:30N 39°43' W 075°30'0 0.0
2017-Dec-08 13:01N 39°43' W 075°30'0 0.0
2017-Dec-08 12:30N 39°43' W 075°30'0 0.0
2017-Dec-08 12:00N 39°43' W 075°30'0 0.7
2017-Dec-08 11:30N 39°42' W 075°31'3 5.2
2017-Dec-08 11:00N 39°40' W 075°32'5 9.3
2017-Dec-08 10:30N 39°35' W 075°34'2 3.6
2017-Dec-08 10:01N 39°34' W 075°33'2 4.2
2017-Dec-08 09:31N 39°35' W 075°35'0 0.0
2017-Dec-08 08:58N 39°35' W 075°35'0 0.0
2017-Dec-08 08:28N 39°35' W 075°35'0 0.0
2017-Dec-08 07:58N 39°35' W 075°35'0 0.0
2017-Dec-08 07:28N 39°35' W 075°35'0 0.0
2017-Dec-08 06:58N 39°35' W 075°35'0 0.0
2017-Dec-08 06:28N 39°35' W 075°35'0 0.0
2017-Dec-08 05:58N 39°35' W 075°35'0 0.0
2017-Dec-08 05:28N 39°35' W 075°35'0 0.0
2017-Dec-08 04:58N 39°35' W 075°35'0 0.0
2017-Dec-08 04:28N 39°35' W 075°35'0 0.0
2017-Dec-08 03:58N 39°35' W 075°35'0 0.0
2017-Dec-08 03:28N 39°35' W 075°35'0 0.0
2017-Dec-08 02:58N 39°35' W 075°35'0 0.0
2017-Dec-08 02:28N 39°35' W 075°35'0 0.0
2017-Dec-08 01:58N 39°35' W 075°35'0 0.0
2017-Dec-08 01:31N 39°35' W 075°35'0 0.0
2017-Dec-08 00:58N 39°35' W 075°35'0 0.0
2017-Dec-08 00:30N 39°35' W 075°35'0 0.0
2017-Dec-08 00:00N 39°35' W 075°35'0 0.0
2017-Dec-07 23:30N 39°35' W 075°35'0 0.0
2017-Dec-07 23:00N 39°35' W 075°35'0 0.0
2017-Dec-07 22:30N 39°35' W 075°35'0 0.0
2017-Dec-07 22:00N 39°35' W 075°35'0 0.0
2017-Dec-07 21:31N 39°35' W 075°35'0 0.0
2017-Dec-07 21:01N 39°35' W 075°35'0 0.0
2017-Dec-07 20:31N 39°35' W 075°35'0 0.0
2017-Dec-07 20:00N 39°35' W 075°35'0 0.0
2017-Dec-07 19:30N 39°35' W 075°35'0 0.0
2017-Dec-07 19:00N 39°35' W 075°35'0 0.0
2017-Dec-07 18:30N 39°35' W 075°35'0 0.0
2017-Dec-07 18:00N 39°35' W 075°35'0 0.0
2017-Dec-07 17:30N 39°35' W 075°35'0 0.0
2017-Dec-07 17:00N 39°35' W 075°35'0 0.0
2017-Dec-07 16:30N 39°35' W 075°35'0 0.0
2017-Dec-07 16:00N 39°35' W 075°35'0 0.0
2017-Dec-07 15:30N 39°35' W 075°35'0 0.0
2017-Dec-07 15:00N 39°35' W 075°35'0 0.0
2017-Dec-07 14:30N 39°35' W 075°35'0 0.0
2017-Dec-07 14:00N 39°35' W 075°35'0 0.0
2017-Dec-07 13:30N 39°35' W 075°35'0 0.0
2017-Dec-07 13:00N 39°35' W 075°35'0 0.0
2017-Dec-07 12:30N 39°35' W 075°35'0 0.0
2017-Dec-07 12:00N 39°35' W 075°35'0 0.0
2017-Dec-07 11:30N 39°35' W 075°35'0 0.0
2017-Dec-07 11:00N 39°35' W 075°35'0 0.0
2017-Dec-07 10:30N 39°35' W 075°35'0 0.0
2017-Dec-07 10:00N 39°35' W 075°35'0 0.0
2017-Dec-07 09:31N 39°35' W 075°35'0 0.1
2017-Dec-07 09:00N 39°35' W 075°35'2 3.6
2017-Dec-07 08:31N 39°34' W 075°33'1 1.3
2017-Dec-07 08:00N 39°35' W 075°33'3 5.9
2017-Dec-07 07:30N 39°37' W 075°35'5 9.4
2017-Dec-07 07:00N 39°41' W 075°31'510.5
2017-Dec-07 06:30N 39°46' W 075°29'713.2
2017-Dec-07 06:00N 39°50' W 075°22'4 7.7
2017-Dec-07 05:30N 39°51' W 075°17'1 0.8
2017-Dec-07 04:51N 39°51' W 075°16'0 0.0
2017-Dec-07 04:03N 39°51' W 075°16'0 0.0
2017-Dec-07 04:00N 39°51' W 075°16'0 0.0
2017-Dec-07 03:30N 39°51' W 075°16'0 0.0
2017-Dec-07 03:00N 39°51' W 075°16'0 0.0
2017-Dec-07 02:30N 39°51' W 075°16'0 0.0
2017-Dec-07 02:00N 39°51' W 075°16'0 0.0
2017-Dec-07 01:30N 39°51' W 075°16'0 0.0
2017-Dec-07 01:00N 39°51' W 075°16'0 0.0
2017-Dec-07 00:30N 39°51' W 075°16'0 0.0
2017-Dec-07 00:00N 39°51' W 075°16'0 0.0
2017-Dec-06 23:30N 39°51' W 075°16'0 0.0
2017-Dec-06 23:00N 39°51' W 075°16'0 0.0
2017-Dec-06 22:27N 39°51' W 075°16'0 0.0
2017-Dec-06 22:00N 39°51' W 075°16'0 0.0
2017-Dec-06 21:30N 39°51' W 075°16'0 0.0
2017-Dec-06 20:57N 39°51' W 075°16'  
2017-Dec-03 08:01N 38°25' W 074°36'1 6.7
2017-Dec-03 07:49N 38°24' W 074°35'2 7.7
2017-Dec-03 07:29N 38°23' W 074°33'917.8
2017-Dec-03 06:58N 38°17' W 074°23'1015.7
2017-Dec-03 06:21N 38°12' W 074°13'3 6.5
2017-Dec-03 05:55N 38°10' W 074°10'  

Dump ship's entire track history